Weather observations for the past three days for
Lexington Blue Grass Airport
| Date | Time (edt) | Wind (mph) | Vis. (mi.) | Weather | Sky Cond. | Temperature (ºF) | Relative Humidity | Wind Chill (°F) | Heat Index (°F) | Pressure | Precipitation (in) | ||||||
|---|---|---|---|---|---|---|---|---|---|---|---|---|---|---|---|---|---|
| Air | Dwpt | 6 hour | altimeter (in) | sea level (mb) | 1 hr | 3 hr | 6 hr | ||||||||||
| Max. | Min. | ||||||||||||||||
| 05 | 05:54 | Calm | 10.00 | Fair | CLR | 73 | 70 | 90% | 29.96 | 1013.2 | |||||||
| 05 | 04:54 | Calm | 10.00 | Fair | CLR | 77 | 71.1 | 82% | 79 | 29.95 | 1012.8 | ||||||
| 05 | 03:54 | Calm | 10.00 | Fair | CLR | 75 | 71.1 | 88% | 75 | 29.95 | 1012.7 | ||||||
| 05 | 02:54 | S 3 | 10.00 | Fair | CLR | 77 | 71.1 | 82% | 79 | 29.96 | 1013.3 | ||||||
| 05 | 01:54 | SE 5 | 10.00 | Fair | CLR | 75.9 | 71.1 | 87.1 | 73.9 | 85% | 76 | 29.98 | 1014.0 | ||||
| 05 | 00:54 | Calm | 10.00 | Fair | CLR | 75.9 | 71.1 | 85% | 76 | 29.99 | 1014.3 | ||||||
| 04 | 23:54 | E 3 | 10.00 | Fair | CLR | 79 | 71.1 | 77% | 82 | 29.99 | 1014.3 | ||||||
| 04 | 22:54 | E 5 | 10.00 | Fair | CLR | 80.1 | 70 | 71% | 83 | 30 | 1014.4 | ||||||
| 04 | 21:54 | Calm | 10.00 | Fair | CLR | 80.1 | 72 | 76% | 84 | 29.98 | 1013.9 | ||||||
| 04 | 20:54 | Calm | 10.00 | Fair | CLR | 82.9 | 72 | 70% | 88 | 29.96 | 1013.5 | ||||||
| 04 | 19:54 | S 5 | 10.00 | Fair | CLR | 84.9 | 72 | 98.1 | 84.9 | 65% | 91 | 29.95 | 1013.1 | ||||
| 04 | 18:54 | N 7 | 10.00 | Fair | CLR | 93 | 69.1 | 46% | 98 | 29.97 | 1013.7 | ||||||
| 04 | 17:54 | N 8 | 10.00 | Fair | CLR | 95 | 70 | 44% | 101 | 29.98 | 1014.0 | ||||||
| 04 | 16:54 | NW 8 | 10.00 | Fair | CLR | 97 | 68 | 39% | 102 | 29.97 | 1013.7 | ||||||
| 04 | 15:54 | W 13 | 10.00 | Fair | CLR | 97 | 69.1 | 40% | 103 | 29.99 | 1014.4 | ||||||
| 04 | 14:54 | NW 7 | 10.00 | Partly Cloudy | SCT060 | 97 | 69.1 | 40% | 103 | 30.01 | 1014.9 | ||||||
| 04 | 13:54 | W 8 | 10.00 | Fair | CLR | 97 | 70 | 97 | 75 | 42% | 104 | 30.03 | 1015.5 | ||||
| 04 | 12:54 | Vrbl 6 | 10.00 | Fair | CLR | 95 | 71.1 | 46% | 102 | 30.05 | 1016.1 | ||||||
| 04 | 11:54 | Calm | 10.00 | Fair | CLR | 91.9 | 73 | 54% | 101 | 30.05 | 1016.4 | ||||||
| 04 | 10:54 | W 3 | 10.00 | Fair | CLR | 89.1 | 73 | 59% | 97 | 30.05 | 1016.3 | ||||||
| 04 | 09:54 | SW 3 | 10.00 | Fair | CLR | 86 | 73 | 65% | 93 | 30.05 | 1016.3 | ||||||
| 04 | 08:54 | Calm | 10.00 | Fair | CLR | 80.1 | 72 | 76% | 84 | 30.05 | 1016.5 | ||||||
| 04 | 07:54 | S 5 | 10.00 | Fair | CLR | 75 | 71.1 | 80.1 | 72 | 88% | 75 | 30.04 | 1016.0 | ||||
| 04 | 06:54 | S 3 | 10.00 | Fair | CLR | 73.9 | 70 | 88% | 30.02 | 1015.5 | |||||||
| 04 | 05:54 | SE 3 | 10.00 | Fair | CLR | 73 | 71.1 | 94% | 30.02 | 1015.2 | |||||||
| 04 | 04:54 | Calm | 10.00 | Fair | CLR | 75.9 | 71.1 | 85% | 76 | 30.01 | 1015.1 | ||||||
| 04 | 03:54 | Calm | 10.00 | Fair | CLR | 75.9 | 71.1 | 85% | 76 | 30.01 | 1014.9 | ||||||
| 04 | 02:54 | Calm | 10.00 | Fair | CLR | 78.1 | 71.1 | 79% | 80 | 30.01 | 1015.0 | ||||||
| 04 | 01:54 | S 5 | 10.00 | Fair | CLR | 79 | 71.1 | 90 | 77 | 77% | 82 | 30.02 | 1015.3 | ||||
| 04 | 00:54 | S 5 | 10.00 | Fair | CLR | 80.1 | 72 | 76% | 84 | 30.03 | 1015.6 | ||||||
| 03 | 23:54 | SE 6 | 10.00 | Fair | CLR | 79 | 73 | 82% | 82 | 30.04 | 1015.8 | ||||||
| 03 | 22:54 | S 3 | 10.00 | Fair | CLR | 81 | 73 | 77% | 86 | 30.04 | 1015.9 | ||||||
| 03 | 21:54 | Calm | 10.00 | Fair | CLR | 82.9 | 73 | 72% | 89 | 30.04 | 1016.1 | ||||||
| 03 | 20:54 | Calm | 10.00 | Fair | CLR | 86 | 72 | 63% | 92 | 30.03 | 1015.8 | ||||||
| 03 | 19:54 | Calm | 10.00 | Fair | CLR | 90 | 71.1 | 97 | 90 | 54% | 96 | 30.01 | 1014.9 | ||||
| 03 | 18:54 | W 3 | 10.00 | Fair | CLR | 93 | 70 | 47% | 99 | 30 | 1014.7 | ||||||
| 03 | 17:54 | W 6 | 10.00 | Fair | CLR | 93.9 | 69.1 | 44% | 99 | 30 | 1014.6 | ||||||
| 03 | 16:54 | W 9 | 10.00 | A Few Clouds | FEW060 | 96.1 | 68 | 40% | 101 | 30.01 | 1015.0 | ||||||
| 03 | 14:54 | SW 5 | 10.00 | Partly Cloudy | SCT060 | 95 | 68 | 41% | 100 | 30.05 | 1016.2 | ||||||
| 03 | 13:54 | Calm | 10.00 | Fair | CLR | 93.9 | 68 | 95 | 73.9 | 43% | 98 | 30.06 | 1016.6 | ||||
| 03 | 12:54 | Vrbl 7 | 10.00 | Fair | CLR | 93.9 | 69.1 | 44% | 99 | 30.07 | 1017.0 | ||||||
| 03 | 11:54 | Calm | 10.00 | Fair | CLR | 91 | 70 | 50% | 97 | 30.09 | 1017.5 | ||||||
| 03 | 10:54 | W 5 | 10.00 | Fair | CLR | 89.1 | 70 | 53% | 94 | 30.08 | 1017.5 | ||||||
| 03 | 09:54 | W 5 | 10.00 | Fair | CLR | 86 | 72 | 63% | 92 | 30.09 | 1017.6 | ||||||
| 03 | 08:54 | S 3 | 10.00 | Fair | CLR | 80.1 | 71.1 | 74% | 84 | 30.1 | 1018.0 | ||||||
| 03 | 07:54 | S 5 | 10.00 | Fair | CLR | 73.9 | 70 | 78.1 | 71.1 | 88% | 30.1 | 1018.0 | |||||
| 03 | 06:54 | Calm | 10.00 | Fair | CLR | 72 | 69.1 | 91% | 30.08 | 1017.4 | |||||||
| 03 | 05:54 | Calm | 10.00 | Fair | CLR | 73 | 69.1 | 87% | 30.08 | 1017.3 | |||||||
| 03 | 04:54 | S 3 | 10.00 | Fair | CLR | 73 | 69.1 | 87% | 30.07 | 1017.0 | |||||||
| 03 | 03:54 | S 5 | 10.00 | Fair | CLR | 75 | 69.1 | 82% | 75 | 30.06 | 1016.7 | ||||||
| 03 | 02:54 | SE 5 | 10.00 | Fair | CLR | 75.9 | 69.1 | 79% | 77 | 30.05 | 1016.4 | ||||||
| 03 | 01:54 | S 5 | 10.00 | Fair | CLR | 77 | 69.1 | 87.1 | 75 | 77% | 79 | 30.06 | 1016.6 | ||||
| 03 | 00:54 | S 3 | 10.00 | Fair | CLR | 75.9 | 70 | 82% | 77 | 30.06 | 1016.6 | ||||||
| 02 | 23:54 | S 6 | 10.00 | Fair | CLR | 79 | 69.1 | 72% | 82 | 30.05 | 1016.4 | ||||||
| 02 | 22:54 | SE 5 | 10.00 | Fair | CLR | 78.1 | 71.1 | 79% | 80 | 30.06 | 1016.8 | ||||||
| 02 | 21:54 | S 3 | 10.00 | Fair | CLR | 80.1 | 71.1 | 74% | 84 | 30.06 | 1016.8 | ||||||
| 02 | 20:54 | Calm | 10.00 | Fair | CLR | 82 | 72 | 72% | 87 | 30.05 | 1016.5 | ||||||
| 02 | 19:54 | Calm | 10.00 | Fair | CLR | 88 | 69.1 | 95 | 88 | 54% | 92 | 30.05 | 1016.3 | ||||
| 02 | 18:54 | SW 5 | 10.00 | Fair | CLR | 91.9 | 68 | 46% | 96 | 30.05 | 1016.5 | ||||||
| 02 | 17:54 | SW 7 | 10.00 | Fair | CLR | 93 | 66 | 41% | 96 | 30.06 | 1016.7 | ||||||
| 02 | 16:54 | SW 8 | 10.00 | Fair | CLR | 93.9 | 66 | 40% | 97 | 30.06 | 1016.9 | ||||||
| 02 | 15:54 | SW 8 | 10.00 | Fair | CLR | 93.9 | 66.9 | 41% | 98 | 30.08 | 1017.3 | ||||||
| 02 | 14:54 | SW 10 | 10.00 | A Few Clouds | FEW055 | 93.9 | 69.1 | 44% | 99 | 30.1 | 1017.9 | ||||||
| 02 | 13:54 | SW 10 | 10.00 | A Few Clouds | FEW050 | 93.9 | 70 | 93.9 | 73.9 | 46% | 100 | 30.11 | 1018.2 | ||||
| 02 | 12:54 | W 8 | 10.00 | Fair | CLR | 91.9 | 70 | 49% | 98 | 30.13 | 1019.0 | ||||||
| 02 | 11:54 | NW 6 | 10.00 | Fair | CLR | 91 | 71.1 | 52% | 98 | 30.14 | 1019.5 | ||||||
| 02 | 10:54 | Vrbl 3 | 10.00 | Fair | CLR | 88 | 72 | 59% | 95 | 30.14 | 1019.3 | ||||||
| 02 | 09:54 | W 3 | 10.00 | Fair | CLR | 82.9 | 72 | 70% | 88 | 30.14 | 1019.4 | ||||||
| 02 | 08:54 | SW 6 | 10.00 | Fair | CLR | 79 | 70 | 74% | 82 | 30.13 | 1019.2 | ||||||
| 02 | 07:54 | S 5 | 10.00 | Fair | CLR | 73.9 | 69.1 | 75 | 71.1 | 85% | 30.12 | 1018.7 | |||||
| 02 | 06:54 | S 6 | 10.00 | Fair | CLR | 72 | 68 | 87% | 30.1 | 1018.2 | |||||||
| Date | Time (edt) | Wind (mph) | Vis. (mi.) | Weather | Sky Cond. | Air | Dwpt | Max. | Min. | Relative Humidity | Wind Chill (°F) | Heat Index (°F) | altimeter (in) | sea level (mb) | 1 hr | 3 hr | 6 hr |
| 6 hour | |||||||||||||||||
| Temperature (ºF) | Pressure | Precipitation (in) | |||||||||||||||